Time;durP1;ratioP1;P1;durP2;ratioP2;P2;SDS_P1;SDS_P2;PMS_P1;PMS_P2;Temp;Humidity;BMP_temperature;BMP_pressure;BME280_temperature;BME280_humidity;BME280_pressure;Samples;Min_cycle;Max_cycle;Signal;HPM_P1;HPM_P2
2022/06/04 00:00:17;;;;;;;9.43;8.73;;;;;;;18.62;100.00;100172.75;4987357;28;20205;-76
2022/06/04 00:02:45;;;;;;;8.93;8.27;;;;;;;18.59;100.00;100180.75;4985991;28;20189;-76
2022/06/04 00:05:13;;;;;;;9.80;9.10;;;;;;;18.56;100.00;100179.09;4989528;28;20187;-76
2022/06/04 00:07:39;;;;;;;9.77;9.07;;;;;;;18.52;100.00;100179.31;4984377;28;20194;-76
2022/06/04 00:15:46;;;;;;;9.63;8.90;;;;;;;18.35;100.00;100175.66;4989559;28;20266;-76
2022/06/04 00:18:11;;;;;;;9.10;8.40;;;;;;;18.34;100.00;100173.97;5019263;28;20191;-76
2022/06/04 00:20:37;;;;;;;10.07;9.27;;;;;;;18.34;100.00;100183.59;4989282;28;20618;-76
2022/06/04 00:23:05;;;;;;;9.50;8.80;;;;;;;18.33;100.00;100176.66;4987591;28;20674;-75
2022/06/04 00:25:32;;;;;;;9.80;9.10;;;;;;;18.32;100.00;100180.19;4986399;28;20192;-75
2022/06/04 00:28:03;;;;;;;9.60;8.90;;;;;;;18.32;100.00;100182.81;4988100;28;20189;-75
2022/06/04 00:30:28;;;;;;;10.00;9.23;;;;;;;18.30;100.00;100182.88;4989464;28;21007;-75
2022/06/04 00:32:54;;;;;;;10.97;10.07;;;;;;;18.27;100.00;100173.38;4989978;28;20190;-74
2022/06/04 00:35:20;;;;;;;9.47;8.77;;;;;;;18.26;100.00;100174.28;4984631;28;20212;-75
2022/06/04 00:37:46;;;;;;;9.70;9.00;;;;;;;18.25;100.00;100176.97;4989219;28;20401;-75
2022/06/04 00:40:39;;;;;;;9.87;9.13;;;;;;;18.24;100.00;100175.28;4986296;28;20575;-77
2022/06/04 00:43:04;;;;;;;9.70;9.00;;;;;;;18.21;100.00;100165.78;4991611;28;20197;-77
2022/06/04 00:45:36;;;;;;;9.70;9.00;;;;;;;18.19;100.00;100169.38;4986048;28;20186;-78
2022/06/04 00:48:08;;;;;;;9.10;8.40;;;;;;;18.18;100.00;100170.28;4981367;28;20193;-77
2022/06/04 00:50:38;;;;;;;9.87;9.17;;;;;;;18.16;100.00;100173.00;5018781;28;20208;-77
2022/06/04 00:53:08;;;;;;;9.43;8.67;;;;;;;18.12;100.00;100169.66;4988491;28;20183;-77
2022/06/04 00:55:52;;;;;;;10.67;9.80;;;;;;;18.10;100.00;100175.84;4983243;28;20279;-77
2022/06/04 00:58:40;;;;;;;11.13;10.23;;;;;;;18.07;100.00;100182.09;4983634;28;20180;-77
2022/06/04 01:01:18;;;;;;;11.07;10.17;;;;;;;18.06;100.00;100183.00;4985402;28;20209;-74
2022/06/04 01:04:03;;;;;;;12.10;11.10;;;;;;;18.06;100.00;100188.22;4989708;28;20189;-76
2022/06/04 01:06:44;;;;;;;11.70;10.90;;;;;;;18.03;100.00;100182.28;4986085;28;20260;-75
2022/06/04 01:09:25;;;;;;;12.27;11.37;;;;;;;17.98;100.00;100180.69;4987996;28;20203;-77
2022/06/04 01:12:22;;;;;;;13.37;12.47;;;;;;;17.97;100.00;100173.75;4986787;28;20323;-75
2022/06/04 01:15:37;;;;;;;13.37;12.27;;;;;;;17.95;100.00;100179.94;4960256;28;20663;-75
2022/06/04 01:18:34;;;;;;;13.17;12.17;;;;;;;17.91;100.00;100186.22;4986102;28;20193;-76
2022/06/04 01:21:20;;;;;;;15.07;13.97;;;;;;;17.88;100.00;100178.47;4984041;28;20210;-76
2022/06/04 01:24:15;;;;;;;13.63;12.63;;;;;;;17.87;100.00;100179.41;5019934;28;20189;-76
2022/06/04 01:27:05;;;;;;;11.70;10.90;;;;;;;17.85;100.00;100187.31;4993844;28;20278;-76
2022/06/04 01:29:58;;;;;;;10.40;9.70;;;;;;;17.85;100.00;100191.72;4984743;28;20263;-75
2022/06/04 01:32:30;;;;;;;11.27;10.47;;;;;;;17.81;100.00;100196.22;4986143;28;20536;-75
2022/06/04 01:35:23;;;;;;;10.40;9.67;;;;;;;17.78;100.00;100183.25;5014419;28;20185;-75
2022/06/04 01:37:51;;;;;;;11.63;10.83;;;;;;;17.75;100.00;100184.22;4987735;28;20185;-75
2022/06/04 01:43:12;;;;;;;10.00;9.30;;;;;;;17.67;100.00;100189.78;4988233;28;20191;-75
2022/06/04 01:45:40;;;;;;;10.97;10.17;;;;;;;17.65;100.00;100196.81;4988864;28;20189;-74
2022/06/04 01:48:07;;;;;;;9.67;8.90;;;;;;;17.64;100.00;100199.50;4986987;28;20189;-75
2022/06/04 01:50:40;;;;;;;9.77;9.07;;;;;;;17.62;100.00;100206.56;4984287;28;20301;-76
2022/06/04 01:53:09;;;;;;;9.00;8.40;;;;;;;17.62;100.00;100206.56;4985737;28;20235;-75
2022/06/04 01:55:41;;;;;;;9.43;8.83;;;;;;;17.60;100.00;100206.66;4984933;28;20189;-75
2022/06/04 01:58:14;;;;;;;9.97;9.17;;;;;;;17.60;100.00;100217.09;4986297;28;20553;-76
2022/06/04 02:00:49;;;;;;;10.40;9.70;;;;;;;17.60;100.00;100224.97;4984189;28;20263;-75
2022/06/04 02:03:21;;;;;;;10.40;9.60;;;;;;;17.57;100.00;100212.00;4981797;28;20188;-75
2022/06/04 02:05:50;;;;;;;9.97;9.30;;;;;;;17.56;100.00;100214.66;4987385;28;20219;-75
2022/06/04 02:08:21;;;;;;;10.10;9.40;;;;;;;17.52;100.00;100212.19;4984957;28;20339;-75
2022/06/04 02:11:00;;;;;;;9.70;8.90;;;;;;;17.51;100.00;100215.69;4987644;28;20227;-75
2022/06/04 02:13:26;;;;;;;9.80;9.10;;;;;;;17.47;100.00;100205.44;4992778;28;20189;-75
2022/06/04 02:16:01;;;;;;;11.03;10.13;;;;;;;17.45;100.00;100200.22;4984890;28;20200;-75
2022/06/04 02:18:27;;;;;;;10.90;10.00;;;;;;;17.43;100.00;100191.59;4978657;28;20649;-75
2022/06/04 02:20:52;;;;;;;11.17;10.37;;;;;;;17.38;100.00;100180.47;4985031;28;20217;-75
2022/06/04 02:23:18;;;;;;;10.00;9.30;;;;;;;17.35;100.00;100183.19;4985398;28;20189;-75
2022/06/04 02:25:44;;;;;;;10.23;9.43;;;;;;;17.34;100.00;100181.50;4982775;28;20209;-75
2022/06/04 02:28:10;;;;;;;10.03;9.33;;;;;;;17.32;100.00;100188.53;4983697;28;20201;-75
2022/06/04 02:31:12;;;;;;;11.20;10.20;;;;;;;17.32;100.00;100184.16;4986488;28;20221;-75
2022/06/04 02:34:07;;;;;;;10.10;9.40;;;;;;;17.31;100.00;100179.00;4988101;28;20194;-74
2022/06/04 02:36:43;;;;;;;10.87;10.00;;;;;;;17.28;100.00;100185.19;4986270;28;20268;-74
2022/06/04 02:39:24;;;;;;;10.13;9.43;;;;;;;17.25;100.00;100172.25;4986826;28;20240;-74
2022/06/04 02:42:02;;;;;;;10.10;9.30;;;;;;;17.24;100.00;100174.94;4984746;28;20197;-74
2022/06/04 02:44:31;;;;;;;10.20;9.40;;;;;;;17.21;100.00;100168.03;4987643;28;20185;-74
2022/06/04 02:47:05;;;;;;;10.27;9.47;;;;;;;17.20;100.00;100172.44;4979600;28;20252;-74
2022/06/04 02:49:43;;;;;;;10.20;9.47;;;;;;;17.19;100.00;100159.38;5016469;28;20247;-75
2022/06/04 02:52:13;;;;;;;9.03;8.43;;;;;;;17.19;100.00;100165.50;5005467;28;20188;-75
2022/06/04 02:54:49;;;;;;;10.17;9.23;;;;;;;17.20;100.00;100161.97;4985838;28;20217;-75
2022/06/04 02:57:15;;;;;;;10.13;9.33;;;;;;;17.22;100.00;100167.13;4984317;28;20555;-75
2022/06/04 02:59:43;;;;;;;10.57;9.80;;;;;;;17.23;100.00;100160.97;4986654;28;20216;-75
2022/06/04 03:02:12;;;;;;;10.07;9.37;;;;;;;17.27;100.00;100167.81;4984093;28;20202;-75
2022/06/04 03:04:49;;;;;;;9.40;8.70;;;;;;;17.29;100.00;100163.38;4989094;28;20184;-75
2022/06/04 03:07:16;;;;;;;10.13;9.27;;;;;;;17.32;100.00;100163.22;4989045;28;20183;-75
2022/06/04 03:09:44;;;;;;;10.30;9.57;;;;;;;17.35;100.00;100162.28;4989717;28;20213;-75
2022/06/04 03:12:12;;;;;;;9.13;8.53;;;;;;;17.39;100.00;100157.78;4987508;28;20189;-74
2022/06/04 03:14:37;;;;;;;10.10;9.30;;;;;;;17.40;100.00;100160.31;4986041;28;20185;-75
2022/06/04 03:17:07;;;;;;;9.40;8.70;;;;;;;17.42;100.00;100168.94;4996877;28;20186;-75
2022/06/04 03:19:32;;;;;;;9.17;8.47;;;;;;;17.42;100.00;100171.56;4986538;28;20263;-75
2022/06/04 03:21:59;;;;;;;9.97;9.17;;;;;;;17.42;100.00;100175.97;4987197;28;20704;-74
2022/06/04 03:24:25;;;;;;;9.63;9.00;;;;;;;17.42;100.00;100182.03;4984974;28;20232;-75
2022/06/04 03:26:51;;;;;;;9.40;8.80;;;;;;;17.42;100.00;100186.44;4989025;28;20200;-75
2022/06/04 03:29:16;;;;;;;9.20;8.50;;;;;;;17.43;100.00;100198.59;4984639;28;20239;-75
2022/06/04 03:31:42;;;;;;;9.47;8.77;;;;;;;17.44;100.00;100200.31;4984885;28;20193;-75
2022/06/04 03:34:07;;;;;;;9.63;8.93;;;;;;;17.45;100.00;100202.84;4982950;28;20224;-74
2022/06/04 03:36:34;;;;;;;10.20;9.40;;;;;;;17.46;100.00;100190.63;4988494;28;20185;-75
2022/06/04 03:39:00;;;;;;;10.00;9.30;;;;;;;17.46;100.00;100201.09;4988940;28;20219;-75
2022/06/04 03:41:25;;;;;;;11.00;10.20;;;;;;;17.46;100.00;100195.88;4986900;28;20182;-75
2022/06/04 03:43:54;;;;;;;11.10;10.30;;;;;;;17.44;100.00;100188.06;4986034;28;20191;-75
2022/06/04 03:46:21;;;;;;;10.10;9.40;;;;;;;17.44;100.00;100192.47;4984589;28;20193;-75
2022/06/04 03:48:47;;;;;;;10.80;9.97;;;;;;;17.44;100.00;100193.28;4987228;28;20587;-75
2022/06/04 03:51:12;;;;;;;10.13;9.33;;;;;;;17.46;100.00;100194.09;4994061;28;20207;-75
2022/06/04 03:53:38;;;;;;;9.27;8.60;;;;;;;17.51;100.00;100188.66;4989071;28;20885;-75
2022/06/04 03:56:03;;;;;;;9.73;8.87;;;;;;;17.51;100.00;100170.34;4988612;28;20323;-77
2022/06/04 03:58:30;;;;;;;11.27;10.37;;;;;;;17.54;100.00;100151.09;4990001;28;20235;-76
2022/06/04 04:00:56;;;;;;;11.70;10.80;;;;;;;17.55;100.00;100171.06;4985162;28;21915;-76
2022/06/04 04:03:23;;;;;;;10.97;10.17;;;;;;;17.57;100.00;100188.44;4986041;28;20205;-76
2022/06/04 04:05:51;;;;;;;9.97;9.30;;;;;;;17.64;100.00;100197.72;4989640;28;20196;-76
2022/06/04 04:08:18;;;;;;;10.13;9.33;;;;;;;17.76;100.00;100204.25;4990872;28;20189;-76
2022/06/04 04:10:44;;;;;;;9.30;8.63;;;;;;;17.90;100.00;100215.94;4984300;28;20221;-76
2022/06/04 04:13:11;;;;;;;9.27;8.57;;;;;;;18.05;100.00;100214.50;4988864;28;20677;-76
2022/06/04 04:15:37;;;;;;;9.03;8.43;;;;;;;18.24;100.00;100212.78;4983443;28;20235;-75
2022/06/04 04:18:03;;;;;;;8.87;8.27;;;;;;;18.45;100.00;100222.44;4990446;28;20264;-76
2022/06/04 04:20:31;;;;;;;8.27;7.67;;;;;;;18.67;100.00;100228.44;4997940;28;20242;-76
2022/06/04 04:22:57;;;;;;;8.00;7.40;;;;;;;18.87;100.00;100239.84;4990881;28;20256;-76
2022/06/04 04:25:25;;;;;;;8.23;7.70;;;;;;;19.06;100.00;100232.00;4983095;28;20650;-76
2022/06/04 04:27:52;;;;;;;7.90;7.30;;;;;;;19.19;100.00;100240.19;4998300;28;20665;-76
2022/06/04 04:30:20;;;;;;;9.33;8.63;;;;;;;19.28;100.00;100244.16;4984392;28;20690;-76
2022/06/04 04:32:46;;;;;;;8.80;8.20;;;;;;;19.31;100.00;100233.50;4987121;28;20666;-76
2022/06/04 04:35:18;;;;;;;9.17;8.37;;;;;;;19.37;100.00;100225.34;4989217;28;20216;-76
2022/06/04 04:37:44;;;;;;;8.63;7.83;;;;;;;19.50;100.00;100223.84;4985415;28;20185;-76
2022/06/04 04:40:15;;;;;;;8.00;7.47;;;;;;;19.66;100.00;100238.88;4989276;28;20213;-76
2022/06/04 04:42:41;;;;;;;7.90;7.33;;;;;;;19.81;100.00;100242.56;4987773;28;20196;-76
2022/06/04 04:45:07;;;;;;;7.70;7.20;;;;;;;19.95;100.00;100266.41;4987117;28;20194;-75
2022/06/04 04:47:37;;;;;;;8.20;7.60;;;;;;;20.03;100.00;100276.53;4983666;28;20664;-75
2022/06/04 04:50:08;;;;;;;8.47;7.77;;;;;;;20.01;100.00;100274.88;4981473;28;20302;-76
2022/06/04 04:52:34;;;;;;;8.67;7.87;;;;;;;19.95;100.00;100286.53;4983185;28;20688;-76
2022/06/04 04:54:59;;;;;;;8.40;7.73;;;;;;;19.84;100.00;100299.31;4986700;28;20215;-76
2022/06/04 04:57:24;;;;;;;9.30;8.60;;;;;;;19.69;100.00;100308.75;4987116;28;20262;-76
2022/06/04 04:59:50;;;;;;;8.57;7.87;;;;;;;19.56;100.00;100311.94;4983656;28;20307;-76
2022/06/04 05:02:15;;;;;;;9.13;8.43;;;;;;;19.45;100.00;100299.31;4988033;28;20259;-76
2022/06/04 05:04:41;;;;;;;8.40;7.70;;;;;;;19.39;100.00;100301.38;4986549;28;20198;-74
2022/06/04 05:07:06;;;;;;;8.90;8.20;;;;;;;19.32;100.00;100306.91;4991500;28;20215;-75
2022/06/04 05:09:32;;;;;;;8.73;8.13;;;;;;;19.28;100.00;100321.09;4985844;28;20251;-75
2022/06/04 05:11:57;;;;;;;8.33;7.67;;;;;;;19.26;100.00;100309.81;5016718;28;20182;-75
2022/06/04 05:14:22;;;;;;;7.90;7.30;;;;;;;19.25;100.00;100312.50;4983865;28;20193;-76
2022/06/04 05:16:48;;;;;;;8.33;7.73;;;;;;;19.27;100.00;100315.91;4982960;28;20180;-75
2022/06/04 05:19:14;;;;;;;8.30;7.60;;;;;;;19.29;100.00;100317.53;4988189;28;20181;-75
2022/06/04 05:21:39;;;;;;;8.13;7.63;;;;;;;19.32;100.00;100313.91;4992493;28;20182;-76
2022/06/04 05:24:06;;;;;;;9.40;8.60;;;;;;;19.33;100.00;100319.13;4992111;28;20562;-76
2022/06/04 05:26:32;;;;;;;9.57;8.87;;;;;;;19.32;100.00;100324.41;4987329;28;20814;-75
2022/06/04 05:28:58;;;;;;;9.70;8.90;;;;;;;19.30;100.00;100334.13;4991409;28;20218;-75
2022/06/04 05:31:24;;;;;;;9.20;8.50;;;;;;;19.28;100.00;100341.25;4982094;28;20647;-78
2022/06/04 05:33:49;;;;;;;9.63;8.93;;;;;;;19.26;100.00;100356.19;4988043;28;20187;-77
2022/06/04 05:36:15;;;;;;;9.73;9.03;;;;;;;19.23;100.00;100348.44;4985106;28;20678;-77
2022/06/04 05:38:44;;;;;;;9.33;8.63;;;;;;;19.23;100.00;100348.44;4985595;28;20223;-77
2022/06/04 05:41:13;;;;;;;8.87;8.27;;;;;;;19.23;100.00;100346.66;4983046;28;20216;-77
2022/06/04 05:43:39;;;;;;;8.60;8.00;;;;;;;19.24;100.00;100351.00;4990967;28;20245;-77
2022/06/04 05:46:08;;;;;;;9.60;8.90;;;;;;;19.25;100.00;100338.75;4981882;28;20234;-77
2022/06/04 05:48:38;;;;;;;10.13;9.43;;;;;;;19.24;100.00;100345.75;4981007;28;20670;-77
2022/06/04 05:51:03;;;;;;;10.60;9.73;;;;;;;19.19;100.00;100343.34;4984922;28;20226;-77
2022/06/04 05:53:29;;;;;;;11.27;10.27;;;;;;;19.17;100.00;100341.72;4985584;28;20196;-75
2022/06/04 05:55:55;;;;;;;14.07;12.97;;;;;;;19.18;100.00;100346.88;4984835;28;20198;-75
2022/06/04 05:58:20;;;;;;;13.23;12.23;;;;;;;19.13;100.00;100351.50;5021665;28;20539;-75
2022/06/04 06:00:46;;;;;;;12.40;11.50;;;;;;;19.11;100.00;100348.06;5020371;28;20219;-77
2022/06/04 06:03:11;;;;;;;13.50;12.33;;;;;;;19.10;100.00;100335.00;4986760;28;20349;-75
2022/06/04 06:05:42;;;;;;;14.50;13.20;;;;;;;19.06;100.00;100339.53;4988580;28;20198;-75
2022/06/04 06:08:08;;;;;;;15.00;13.87;;;;;;;19.03;100.00;100329.19;5019701;28;20230;-75
2022/06/04 06:10:41;;;;;;;13.73;12.47;;;;;;;18.95;100.00;100331.31;4983388;28;20368;-76
2022/06/04 06:13:07;;;;;;;12.20;11.20;;;;;;;18.90;100.00;100321.00;4981542;28;20717;-76
2022/06/04 06:15:33;;;;;;;12.23;11.23;;;;;;;18.87;100.00;100327.19;4986145;28;20277;-77
2022/06/04 06:17:59;;;;;;;12.83;11.83;;;;;;;18.86;100.00;100322.03;4988026;28;20187;-77
2022/06/04 06:20:24;;;;;;;12.37;11.43;;;;;;;18.83;100.00;100312.50;4986789;28;20661;-76
2022/06/04 06:22:50;;;;;;;13.37;12.37;;;;;;;18.86;100.00;100315.00;4985814;28;20710;-77
2022/06/04 06:25:16;;;;;;;12.97;11.97;;;;;;;18.89;100.00;100322.75;4981482;28;21060;-77
2022/06/04 06:27:42;;;;;;;12.53;11.53;;;;;;;18.97;100.00;100324.22;4983588;28;20202;-76
2022/06/04 06:30:08;;;;;;;12.47;11.57;;;;;;;19.08;100.00;100318.50;4981506;28;20293;-77
2022/06/04 06:32:33;;;;;;;12.03;11.03;;;;;;;19.20;100.00;100312.72;4987912;28;20620;-75
2022/06/04 06:34:59;;;;;;;13.17;12.07;;;;;;;19.33;100.00;100316.50;4986915;28;20186;-75
2022/06/04 06:37:24;;;;;;;12.67;11.77;;;;;;;19.45;100.00;100324.72;4981601;28;20231;-74
2022/06/04 06:39:50;;;;;;;13.37;12.37;;;;;;;19.56;100.00;100321.63;4980257;28;20608;-75
2022/06/04 06:42:15;;;;;;;12.17;11.27;;;;;;;19.69;100.00;100335.00;4989616;28;20287;-74
2022/06/04 06:44:41;;;;;;;11.50;10.70;;;;;;;19.80;100.00;100340.63;4989165;28;20287;-74
2022/06/04 06:47:07;;;;;;;12.93;11.93;;;;;;;19.86;100.00;100345.56;4979473;28;20268;-75
2022/06/04 06:49:33;;;;;;;12.80;11.80;;;;;;;19.88;100.00;100354.28;4992030;28;20212;-76
2022/06/04 06:52:00;;;;;;;11.97;11.07;;;;;;;19.92;100.00;100362.84;4984833;28;20191;-75
2022/06/04 06:54:31;;;;;;;11.30;10.50;;;;;;;20.03;100.00;100360.59;4990512;28;20259;-75
2022/06/04 06:56:57;;;;;;;12.23;11.33;;;;;;;20.16;100.00;100360.00;4980979;28;20924;-75
2022/06/04 06:59:25;;;;;;;11.67;10.87;;;;;;;20.28;100.00;100363.78;4984669;28;20213;-74
2022/06/04 07:01:51;;;;;;;12.13;11.23;;;;;;;20.43;100.00;100362.22;4989997;28;20649;-74
2022/06/04 07:04:18;;;;;;;12.27;11.27;;;;;;;20.57;100.00;100349.22;4983789;28;20231;-75
2022/06/04 07:06:49;;;;;;;12.83;11.93;;;;;;;20.71;100.00;100338.88;4984369;28;20599;-75
2022/06/04 07:09:27;;;;;;;10.87;10.07;;;;;;;20.93;100.00;100343.09;4978582;28;20634;-75
2022/06/04 07:11:52;;;;;;;10.30;9.60;;;;;;;21.13;100.00;100336.78;4987111;28;20181;-77
2022/06/04 07:14:18;;;;;;;12.93;11.90;;;;;;;21.29;100.00;100335.97;4990055;28;20192;-77
2022/06/04 07:16:44;;;;;;;11.67;10.80;;;;;;;21.33;100.00;100326.94;4983056;28;20193;-78
2022/06/04 07:19:14;;;;;;;10.50;9.80;;;;;;;21.33;100.00;100332.22;4985662;28;20633;-77
2022/06/04 07:21:40;;;;;;;11.97;11.03;;;;;;;21.24;100.00;100323.06;4989497;28;20184;-77
2022/06/04 07:24:06;;;;;;;11.77;10.87;;;;;;;21.18;100.00;100328.63;4988786;28;20662;-77
2022/06/04 07:26:32;;;;;;;10.77;9.97;;;;;;;21.21;100.00;100325.84;4983170;28;20185;-77
2022/06/04 07:28:58;;;;;;;11.27;10.47;;;;;;;21.27;100.00;100328.13;4987373;28;20656;-75
2022/06/04 07:31:23;;;;;;;10.13;9.43;;;;;;;21.39;100.00;100320.53;4990475;28;20266;-75
2022/06/04 07:33:53;;;;;;;11.00;10.20;;;;;;;21.45;100.00;100328.94;4986963;28;20576;-75
2022/06/04 07:36:24;;;;;;;11.73;10.90;;;;;;;21.56;100.00;100320.44;4986206;28;20275;-75
2022/06/04 07:38:51;;;;;;;11.03;10.23;;;;;;;21.62;100.00;100316.69;4988417;28;20204;-75
2022/06/04 07:41:24;;;;;;;10.77;10.07;;;;;;;21.67;100.00;100321.69;4986632;28;20264;-74
2022/06/04 07:43:51;;;;;;;10.93;10.13;;;;;;;21.70;100.00;100324.16;4984832;28;20217;-75
2022/06/04 07:46:17;;;;;;;11.23;10.43;;;;;;;21.68;100.00;100326.03;4981796;28;20205;-75
2022/06/04 07:48:43;;;;;;;11.80;10.80;;;;;;;21.60;100.00;100326.44;4982014;28;20284;-75
2022/06/04 07:51:08;;;;;;;10.10;9.40;;;;;;;21.54;100.00;100334.63;4985430;28;20328;-76
2022/06/04 07:53:34;;;;;;;11.03;10.23;;;;;;;21.50;100.00;100326.06;4988555;28;20310;-76
2022/06/04 07:56:08;;;;;;;11.57;10.63;;;;;;;21.51;100.00;100325.13;4988863;28;20185;-75
2022/06/04 07:58:34;;;;;;;10.43;9.63;;;;;;;21.53;100.00;100330.31;4984310;28;20220;-75
2022/06/04 08:01:01;;;;;;;10.80;10.00;;;;;;;21.60;100.00;100334.34;4987025;28;20623;-75
2022/06/04 08:03:26;;;;;;;11.13;10.33;;;;;;;21.66;100.00;100334.00;4986455;28;20280;-75
2022/06/04 08:05:52;;;;;;;12.03;11.13;;;;;;;21.69;100.00;100341.75;4985531;28;20279;-76
2022/06/04 08:08:18;;;;;;;11.53;10.63;;;;;;;21.67;100.00;100348.88;4988341;28;20276;-76
2022/06/04 08:10:48;;;;;;;11.10;10.30;;;;;;;21.68;100.00;100349.72;4982724;28;20217;-76
2022/06/04 08:13:26;;;;;;;10.97;10.17;;;;;;;21.66;100.00;100341.06;4982494;28;20189;-75
2022/06/04 08:15:56;;;;;;;10.70;10.00;;;;;;;21.64;100.00;100340.28;4985665;28;20215;-76
2022/06/04 08:18:21;;;;;;;10.93;10.00;;;;;;;21.61;100.00;100346.59;4986832;28;20188;-76
2022/06/04 08:20:47;;;;;;;10.73;9.87;;;;;;;21.62;100.00;100350.94;4981978;28;20288;-76
2022/06/04 08:23:14;;;;;;;10.90;10.10;;;;;;;21.60;100.00;100352.78;4983359;28;20214;-75
2022/06/04 08:25:51;;;;;;;11.90;11.07;;;;;;;21.58;100.00;100360.72;4985202;28;20195;-75
2022/06/04 08:28:18;;;;;;;11.70;10.90;;;;;;;21.53;100.00;100369.81;4984353;28;20231;-76
2022/06/04 08:30:44;;;;;;;11.43;10.57;;;;;;;21.51;100.00;100371.66;4986087;28;20213;-76
2022/06/04 08:33:11;;;;;;;11.77;10.97;;;;;;;21.51;100.00;100369.03;4982637;28;20916;-76
2022/06/04 08:35:37;;;;;;;12.43;11.53;;;;;;;21.48;100.00;100370.06;4980722;28;20189;-77
2022/06/04 08:38:02;;;;;;;12.83;11.93;;;;;;;21.48;100.00;100373.53;4985034;28;20461;-77
2022/06/04 08:40:37;;;;;;;12.93;12.03;;;;;;;21.48;100.00;100383.22;4985915;28;20688;-76
2022/06/04 08:43:23;;;;;;;12.50;11.60;;;;;;;21.48;100.00;100389.31;4985423;28;20207;-75
2022/06/04 08:45:49;;;;;;;13.57;12.57;;;;;;;21.48;100.00;100397.22;4986081;28;20218;-77
2022/06/04 08:48:21;;;;;;;13.93;12.93;;;;;;;21.46;100.00;100403.50;4989543;28;20748;-76
2022/06/04 08:50:48;;;;;;;14.73;13.63;;;;;;;21.39;100.00;100404.78;4985080;28;20391;-75
2022/06/04 08:53:20;;;;;;;15.60;14.50;;;;;;;21.36;100.00;100410.19;4985630;28;20200;-76
2022/06/04 08:58:52;;;;;;;13.73;12.80;;;;;;;21.39;100.00;100425.84;4983480;28;20204;-77
2022/06/04 09:01:27;;;;;;;14.90;13.80;;;;;;;21.45;100.00;100425.50;4985726;28;20220;-76
2022/06/04 09:04:24;;;;;;;13.70;12.73;;;;;;;21.53;100.00;100433.00;4983159;28;20185;-76
2022/06/04 09:07:00;;;;;;;13.30;12.30;;;;;;;21.66;100.00;100426.19;4983524;28;20295;-76
2022/06/04 09:09:45;;;;;;;14.67;13.53;;;;;;;21.75;100.00;100436.25;4982297;28;20220;-77
2022/06/04 09:12:29;;;;;;;13.70;12.67;;;;;;;21.83;100.00;100434.97;4982174;28;21115;-76
2022/06/04 09:15:13;;;;;;;14.10;13.00;;;;;;;21.86;100.00;100438.28;4984108;28;20211;-77
2022/06/04 09:17:44;;;;;;;13.27;12.37;;;;;;;21.87;100.00;100437.34;4980019;28;20325;-77
2022/06/04 09:20:26;;;;;;;13.63;12.73;;;;;;;21.87;100.00;100445.25;4987555;28;20759;-77
2022/06/04 09:22:58;;;;;;;13.43;12.43;;;;;;;21.87;100.00;100447.03;4983977;28;20189;-75
2022/06/04 09:25:28;;;;;;;12.70;11.70;;;;;;;21.85;100.00;100454.16;4983488;28;20554;-75
2022/06/04 09:27:59;;;;;;;13.63;12.73;;;;;;;21.86;100.00;100453.25;4987799;28;20309;-76
2022/06/04 09:30:39;;;;;;;12.80;11.90;;;;;;;21.93;100.00;100455.47;4983289;28;20655;-75
2022/06/04 09:33:17;;;;;;;14.07;13.07;;;;;;;22.04;100.00;100454.88;4985828;28;20199;-75
2022/06/04 09:35:44;;;;;;;13.33;12.43;;;;;;;22.16;100.00;100455.16;4983934;28;20832;-75
2022/06/04 09:38:25;;;;;;;12.93;11.90;;;;;;;22.29;100.00;100450.06;4983879;28;20279;-77
2022/06/04 09:41:05;;;;;;;13.13;12.13;;;;;;;22.42;100.00;100453.72;4991312;28;20232;-76
2022/06/04 09:43:32;;;;;;;12.60;11.70;;;;;;;22.56;100.00;100454.75;4982974;28;20270;-77
2022/06/04 09:46:03;;;;;;;13.63;12.57;;;;;;;22.67;100.00;100445.28;4980240;28;20185;-76
2022/06/04 09:48:33;;;;;;;15.87;14.77;;;;;;;22.77;100.00;100445.56;4987300;28;20286;-75
2022/06/04 09:51:05;;;;;;;14.70;13.70;;;;;;;22.86;100.00;100454.75;4981856;28;20254;-75
2022/06/04 09:53:42;;;;;;;14.50;13.50;;;;;;;22.97;100.00;100457.63;4985225;28;20280;-76
2022/06/04 09:56:11;;;;;;;13.50;12.60;;;;;;;23.04;100.00;100455.50;4988059;28;20188;-75
2022/06/04 09:58:39;;;;;;;13.03;12.13;;;;;;;23.11;100.00;100461.25;4992203;28;20200;-75
2022/06/04 10:01:23;;;;;;;12.83;11.90;;;;;;;23.19;100.00;100455.53;4979979;28;20205;-75
2022/06/04 10:04:04;;;;;;;13.60;12.67;;;;;;;23.26;100.00;100457.75;4983657;28;20177;-76
2022/06/04 10:06:29;;;;;;;13.83;12.83;;;;;;;23.32;100.00;100458.28;4983313;28;20189;-75
2022/06/04 10:11:50;;;;;;;15.00;13.97;;;;;;;23.49;100.00;100460.78;4980848;28;20603;-77
2022/06/04 10:14:15;;;;;;;13.40;12.40;;;;;;;23.54;100.00;100458.72;4983695;28;20196;-76
2022/06/04 10:16:44;;;;;;;13.97;13.00;;;;;;;23.61;100.00;100461.81;4980220;28;20190;-75
2022/06/04 10:19:19;;;;;;;14.50;13.40;;;;;;;23.66;100.00;100456.25;4985399;28;20189;-76
2022/06/04 10:22:01;;;;;;;12.97;12.07;;;;;;;23.73;100.00;100465.53;4982220;28;20200;-74
2022/06/04 10:24:29;;;;;;;13.53;12.53;;;;;;;23.80;100.00;100466.00;4977988;28;20185;-74
2022/06/04 10:27:09;;;;;;;12.60;11.70;;;;;;;23.86;100.00;100458.53;4979556;28;20712;-75
2022/06/04 10:29:57;;;;;;;12.87;11.97;;;;;;;23.94;100.00;100455.41;4983098;28;20287;-75
2022/06/04 10:32:54;;;;;;;11.67;10.97;;;;;;;24.08;100.00;100464.28;4983612;28;20197;-75
2022/06/04 10:35:56;;;;;;;12.43;11.53;;;;;;;24.24;100.00;100459.72;4981872;28;20201;-75
2022/06/04 10:38:47;;;;;;;13.30;12.40;;;;;;;24.46;100.00;100466.28;4971595;28;20203;-76
2022/06/04 10:41:26;;;;;;;13.53;12.63;;;;;;;24.70;100.00;100470.97;4986850;28;20202;-76
2022/06/04 10:44:04;;;;;;;13.40;12.43;;;;;;;24.87;100.00;100472.47;4984752;28;20185;-76
2022/06/04 10:46:47;;;;;;;12.80;12.00;;;;;;;25.03;99.40;100461.75;4979937;28;20227;-76
2022/06/04 10:49:22;;;;;;;12.07;11.27;;;;;;;25.13;99.22;100465.44;4977475;28;20576;-76
2022/06/04 10:52:21;;;;;;;13.73;12.83;;;;;;;25.18;98.43;100463.34;4984608;28;20228;-75
2022/06/04 10:54:53;;;;;;;13.97;13.07;;;;;;;25.23;98.44;100460.38;4988640;28;20565;-75
2022/06/04 10:57:37;;;;;;;13.43;12.53;;;;;;;25.26;98.13;100457.50;4981633;28;20193;-75
2022/06/04 11:00:19;;;;;;;13.97;12.97;;;;;;;25.25;98.40;100467.25;5000641;28;20228;-76
2022/06/04 11:03:09;;;;;;;12.27;11.47;;;;;;;25.30;98.13;100460.81;4980331;28;20276;-73
2022/06/04 11:05:52;;;;;;;17.47;16.23;;;;;;;25.20;97.63;100463.22;4978596;28;20219;-74
2022/06/04 11:08:24;;;;;;;14.80;13.80;;;;;;;25.10;97.60;100463.88;4983567;28;20185;-75
2022/06/04 11:11:00;;;;;;;12.80;11.93;;;;;;;25.16;97.61;100465.25;4987465;28;20221;-76
2022/06/04 11:13:28;;;;;;;12.33;11.40;;;;;;;25.28;97.34;100471.50;4988774;28;20200;-75
2022/06/04 11:16:04;;;;;;;14.57;13.57;;;;;;;25.39;96.62;100465.47;4983368;28;20198;-76
2022/06/04 11:18:40;;;;;;;12.87;12.03;;;;;;;25.52;96.70;100462.84;4985055;28;20189;-75
2022/06/04 11:21:36;;;;;;;12.90;12.00;;;;;;;25.65;95.97;100453.09;4988924;28;20203;-75
2022/06/04 11:24:14;;;;;;;12.67;11.83;;;;;;;25.82;95.40;100459.84;4982534;28;20186;-75
2022/06/04 11:26:57;;;;;;;13.00;12.10;;;;;;;25.97;95.15;100463.22;4984273;28;20679;-75
2022/06/04 11:29:23;;;;;;;12.97;11.97;;;;;;;26.11;94.51;100456.94;4984709;28;20391;-76
2022/06/04 11:32:08;;;;;;;14.13;13.23;;;;;;;26.19;93.92;100461.69;4981475;28;20276;-75
2022/06/04 11:34:41;;;;;;;13.67;12.70;;;;;;;26.30;93.48;100461.78;4983702;28;20185;-76
2022/06/04 11:37:18;;;;;;;13.33;12.33;;;;;;;26.44;92.81;100457.28;4983272;28;20248;-76
2022/06/04 11:40:04;;;;;;;12.40;11.50;;;;;;;26.69;91.91;100461.63;4984790;28;20205;-75